createdAt,value
2018-09-08T00:01:52.437Z,9.90
2018-09-08T00:06:33.865Z,9.90
2018-09-08T00:11:14.548Z,9.90
2018-09-08T00:15:59.724Z,9.80
2018-09-08T00:20:46.185Z,9.80
2018-09-08T00:25:31.316Z,9.70
2018-09-08T00:30:13.401Z,9.60
2018-09-08T00:34:53.368Z,9.50
2018-09-08T00:39:33.091Z,9.40
2018-09-08T00:44:13.095Z,9.20
2018-09-08T00:48:53.641Z,9.20
2018-09-08T00:53:35.209Z,9.10
2018-09-08T00:58:15.039Z,9.10
2018-09-08T01:02:55.064Z,9.10
2018-09-08T01:07:35.960Z,9.00
2018-09-08T01:12:17.231Z,9.00
2018-09-08T01:16:57.143Z,9.00
2018-09-08T01:21:37.672Z,9.00
2018-09-08T01:26:18.563Z,8.90
2018-09-08T01:30:59.355Z,8.90
2018-09-08T01:35:39.395Z,8.80
2018-09-08T01:40:19.433Z,8.70
2018-09-08T01:45:00.200Z,8.60
2018-09-08T01:49:40.917Z,8.60
2018-09-08T01:54:22.384Z,8.60
2018-09-08T01:59:03.278Z,8.60
2018-09-08T02:03:44.106Z,8.60
2018-09-08T02:08:24.569Z,8.60
2018-09-08T02:13:04.483Z,8.50
2018-09-08T02:17:45.120Z,8.40
2018-09-08T02:22:25.864Z,8.30
2018-09-08T02:27:06.048Z,8.30
2018-09-08T02:31:46.032Z,8.20
2018-09-08T02:36:25.627Z,8.20
2018-09-08T02:41:06.525Z,8.10
2018-09-08T02:45:47.510Z,8.00
2018-09-08T02:50:34.537Z,7.90
2018-09-08T02:55:13.277Z,7.90
2018-09-08T02:59:51.865Z,7.90
2018-09-08T03:04:31.213Z,7.90
2018-09-08T03:09:10.056Z,7.90
2018-09-08T03:13:48.656Z,7.80
2018-09-08T03:18:27.341Z,7.80
2018-09-08T03:23:06.024Z,7.70
2018-09-08T03:27:44.612Z,7.60
2018-09-08T03:32:23.220Z,7.50
2018-09-08T03:37:01.943Z,7.40
2018-09-08T03:41:40.514Z,7.40
2018-09-08T03:46:19.992Z,7.40
2018-09-08T03:50:58.832Z,7.40
2018-09-08T03:55:37.328Z,7.40
2018-09-08T04:00:16.081Z,7.50
2018-09-08T04:04:56.269Z,7.30
2018-09-08T04:09:36.290Z,7.10
2018-09-08T04:14:16.197Z,7.00
2018-09-08T04:18:57.334Z,6.90
2018-09-08T04:23:38.149Z,6.80
2018-09-08T04:28:18.191Z,6.80
2018-09-08T04:32:59.161Z,6.70
2018-09-08T04:37:39.569Z,6.70
2018-09-08T04:42:19.915Z,6.60
2018-09-08T04:46:59.820Z,6.70
2018-09-08T04:51:40.178Z,6.60
2018-09-08T04:56:20.729Z,6.60
2018-09-08T05:01:01.580Z,6.50
2018-09-08T05:05:41.451Z,6.50
2018-09-08T05:10:21.564Z,6.40
2018-09-08T05:15:02.761Z,6.40
2018-09-08T05:19:43.269Z,6.50
2018-09-08T05:24:23.893Z,6.60
2018-09-08T05:29:04.046Z,6.60
2018-09-08T05:33:43.935Z,6.60
2018-09-08T05:38:23.756Z,6.70
2018-09-08T05:43:04.664Z,6.80
2018-09-08T05:47:45.789Z,6.90
2018-09-08T05:52:25.626Z,7.10
2018-09-08T05:57:06.395Z,7.40
2018-09-08T06:01:46.172Z,7.60
2018-09-08T06:06:26.791Z,7.80
2018-09-08T06:11:06.935Z,8.00
2018-09-08T06:15:46.668Z,8.20
2018-09-08T06:20:27.788Z,8.50
2018-09-08T06:25:07.764Z,8.80
2018-09-08T06:29:47.675Z,9.10
2018-09-08T06:34:27.642Z,9.50
2018-09-08T06:39:13.239Z,9.90
2018-09-08T06:43:53.622Z,10.30
2018-09-08T06:48:34.246Z,10.70
2018-09-08T06:53:14.549Z,10.70
2018-09-08T06:57:55.945Z,10.70
2018-09-08T07:02:35.778Z,11.00
2018-09-08T07:07:15.742Z,11.50
2018-09-08T07:11:56.367Z,12.10
2018-09-08T07:16:36.401Z,12.50
2018-09-08T07:21:17.449Z,12.90
2018-09-08T07:25:58.281Z,13.30
2018-09-08T07:30:38.396Z,13.70
2018-09-08T07:35:18.158Z,14.30
2018-09-08T07:39:58.764Z,15.40
2018-09-08T07:44:38.894Z,17.70
2018-09-08T07:49:20.696Z,19.60
2018-09-08T07:54:03.861Z,21.40
2018-09-08T07:58:49.754Z,22.70
2018-09-08T08:03:30.748Z,24.00
2018-09-08T08:08:14.294Z,24.90
2018-09-08T08:12:56.377Z,25.60
2018-09-08T08:17:38.490Z,26.30
2018-09-08T08:22:19.202Z,27.10
2018-09-08T08:27:00.716Z,27.80
2018-09-08T08:31:41.375Z,27.90
2018-09-08T08:36:24.042Z,28.00
2018-09-08T08:41:03.788Z,28.50
2018-09-08T08:45:44.207Z,28.80
2018-09-08T08:51:37.201Z,29.20
2018-09-08T08:56:16.992Z,29.50
2018-09-08T09:00:57.237Z,29.80
2018-09-08T09:05:37.029Z,30.10
2018-09-08T09:10:17.159Z,30.20
2018-09-08T09:14:57.084Z,30.30
2018-09-08T09:19:48.088Z,30.80
2018-09-08T09:25:09.239Z,30.90
2018-09-08T09:29:49.321Z,31.20
2018-09-08T09:34:29.186Z,31.20
2018-09-08T09:39:10.237Z,31.10
2018-09-08T09:43:51.380Z,31.60
2018-09-08T09:48:31.266Z,32.00
2018-09-08T09:53:12.631Z,32.50
2018-09-08T09:57:52.640Z,32.90
2018-09-08T10:02:39.086Z,33.30
2018-09-08T10:07:20.609Z,34.00
2018-09-08T10:12:00.838Z,34.00
2018-09-08T10:16:40.730Z,33.90
2018-09-08T10:21:21.423Z,34.00
2018-09-08T10:26:01.325Z,34.00
2018-09-08T10:30:41.290Z,33.80
2018-09-08T10:35:21.205Z,33.00
2018-09-08T10:40:02.120Z,33.10
2018-09-08T10:44:42.827Z,33.00
2018-09-08T10:49:22.949Z,31.40
2018-09-08T10:54:03.013Z,30.90
2018-09-08T10:58:42.824Z,29.60
2018-09-08T11:03:23.086Z,29.00
2018-09-08T11:08:02.912Z,30.40
2018-09-08T11:12:43.875Z,30.70
2018-09-08T11:17:23.802Z,29.80
2018-09-08T11:22:04.316Z,28.70
2018-09-08T11:26:45.178Z,27.90
2018-09-08T11:31:25.629Z,27.90
2018-09-08T11:36:05.871Z,28.70
2018-09-08T11:40:45.492Z,29.10
2018-09-08T11:45:25.920Z,28.00
2018-09-08T11:50:09.948Z,26.90
2018-09-08T11:54:50.531Z,26.50
2018-09-08T11:59:31.259Z,27.00
2018-09-08T12:04:11.815Z,28.50
2018-09-08T12:08:51.555Z,30.90
2018-09-08T12:13:31.444Z,32.70
2018-09-08T12:18:11.496Z,31.80
2018-09-08T12:22:51.596Z,31.50
2018-09-08T12:27:31.399Z,30.40
2018-09-08T12:32:12.732Z,32.00
2018-09-08T12:36:52.797Z,33.10
2018-09-08T12:41:34.404Z,32.90
2018-09-08T12:46:17.246Z,33.10
2018-09-08T12:50:57.968Z,33.70
2018-09-08T12:55:40.275Z,33.80
2018-09-08T13:00:24.578Z,34.20
2018-09-08T13:05:07.210Z,34.00
2018-09-08T13:09:49.692Z,32.00
2018-09-08T13:14:30.794Z,32.30
2018-09-08T13:19:10.958Z,33.30
2018-09-08T13:23:52.194Z,32.00
2018-09-08T13:28:32.618Z,29.60
2018-09-08T13:33:12.539Z,29.90
2018-09-08T13:37:52.504Z,30.60
2018-09-08T13:42:32.569Z,31.20
2018-09-08T13:47:12.772Z,32.10
2018-09-08T13:51:52.873Z,32.00
2018-09-08T13:56:33.088Z,31.20
2018-09-08T14:01:13.895Z,30.70
2018-09-08T14:05:53.519Z,30.90
2018-09-08T14:10:33.327Z,30.70
2018-09-08T14:15:13.437Z,30.00
2018-09-08T14:19:53.403Z,28.80
2018-09-08T14:24:33.428Z,28.00
2018-09-08T14:29:13.189Z,27.30
2018-09-08T14:33:52.872Z,27.00
2018-09-08T14:38:33.092Z,26.80
2018-09-08T14:43:16.012Z,26.60
2018-09-08T14:47:56.820Z,26.50
2018-09-08T14:52:37.167Z,26.10
2018-09-08T14:57:17.378Z,26.10
2018-09-08T15:01:57.363Z,25.70
2018-09-08T15:06:37.311Z,25.10
2018-09-08T15:11:17.386Z,24.70
2018-09-08T15:15:58.388Z,24.60
2018-09-08T15:20:38.309Z,24.30
2018-09-08T15:25:18.388Z,24.10
2018-09-08T15:29:58.894Z,23.80
2018-09-08T15:34:39.230Z,23.50
2018-09-08T15:39:18.960Z,23.30
2018-09-08T15:43:58.763Z,23.10
2018-09-08T15:48:38.602Z,22.80
2018-09-08T15:53:19.408Z,22.60
2018-09-08T15:58:00.124Z,22.40
2018-09-08T16:02:40.311Z,22.20
2018-09-08T16:07:20.680Z,22.00
2018-09-08T16:12:01.460Z,21.80
2018-09-08T16:16:42.276Z,21.80
2018-09-08T16:21:22.276Z,21.80
2018-09-08T16:26:01.999Z,22.10
2018-09-08T16:30:42.700Z,22.40
2018-09-08T16:35:23.276Z,22.20
2018-09-08T16:40:04.036Z,21.70
2018-09-08T16:44:43.937Z,21.30
2018-09-08T16:49:24.017Z,21.00
2018-09-08T16:54:03.838Z,20.80
2018-09-08T16:58:44.556Z,20.60
2018-09-08T17:03:25.348Z,20.40
2018-09-08T17:08:05.609Z,20.20
2018-09-08T17:12:45.991Z,20.10
2018-09-08T17:17:26.772Z,20.00
2018-09-08T17:22:07.451Z,19.90
2018-09-08T17:26:47.264Z,19.80
2018-09-08T17:31:27.353Z,19.60
2018-09-08T17:36:07.947Z,19.50
2018-09-08T17:40:48.523Z,19.50
2018-09-08T17:45:28.275Z,19.40
2018-09-08T17:50:08.055Z,19.30
2018-09-08T17:54:48.324Z,19.00
2018-09-08T17:59:28.237Z,18.70
2018-09-08T18:04:08.621Z,18.50
2018-09-08T18:08:50.432Z,18.10
2018-09-08T18:13:32.139Z,17.80
2018-09-08T18:18:12.461Z,17.60
2018-09-08T18:22:52.464Z,17.40
2018-09-08T18:27:33.809Z,17.30
2018-09-08T18:32:13.659Z,17.10
2018-09-08T18:36:54.517Z,16.80
2018-09-08T18:41:34.429Z,16.70
2018-09-08T18:46:14.139Z,16.40
2018-09-08T18:50:55.893Z,16.30
2018-09-08T18:55:35.808Z,16.20
2018-09-08T19:00:15.648Z,16.00
2018-09-08T19:04:56.418Z,15.80
2018-09-08T19:09:36.235Z,15.60
2018-09-08T19:14:21.460Z,15.50
2018-09-08T19:19:01.884Z,15.40
2018-09-08T19:23:41.853Z,15.30
2018-09-08T19:28:22.315Z,15.10
2018-09-08T19:33:02.448Z,14.90
2018-09-08T19:37:42.212Z,14.90
2018-09-08T19:42:23.340Z,14.80
2018-09-08T19:47:08.081Z,14.80
2018-09-08T19:51:49.440Z,14.60
2018-09-08T19:56:34.483Z,14.30
2018-09-08T20:01:15.161Z,14.30
2018-09-08T20:05:55.511Z,14.20
2018-09-08T20:10:35.676Z,14.10
2018-09-08T20:15:15.995Z,14.10
2018-09-08T20:19:56.234Z,14.00
2018-09-08T20:24:36.107Z,14.00
2018-09-08T20:29:16.204Z,13.80
2018-09-08T20:33:56.962Z,13.70
2018-09-08T20:38:37.396Z,13.60
2018-09-08T20:43:18.346Z,13.60
2018-09-08T20:47:58.748Z,13.60
2018-09-08T20:52:39.121Z,13.40
2018-09-08T20:57:19.621Z,13.30
2018-09-08T21:02:00.926Z,13.20
2018-09-08T21:06:41.820Z,13.20
2018-09-08T21:11:21.661Z,13.10
2018-09-08T21:16:01.543Z,13.00
2018-09-08T21:20:42.187Z,12.90
2018-09-08T21:25:21.952Z,12.80
2018-09-08T21:30:01.835Z,12.80
2018-09-08T21:34:45.122Z,12.70
2018-09-08T21:39:25.223Z,12.70
2018-09-08T21:44:06.245Z,12.50
2018-09-08T21:48:46.985Z,12.50
2018-09-08T21:53:27.447Z,12.40
2018-09-08T21:58:07.579Z,12.40
2018-09-08T22:02:58.050Z,12.50
2018-09-08T22:07:38.923Z,12.40
2018-09-08T22:12:19.784Z,12.40
2018-09-08T22:17:00.628Z,12.20
2018-09-08T22:21:41.507Z,12.20
2018-09-08T22:26:21.920Z,12.10
2018-09-08T22:31:01.843Z,12.10
2018-09-08T22:35:41.830Z,12.20
2018-09-08T22:40:23.097Z,12.10
2018-09-08T22:45:04.530Z,12.20
2018-09-08T22:49:44.363Z,12.30
2018-09-08T22:54:24.962Z,12.30
2018-09-08T22:59:06.153Z,12.20
2018-09-08T23:03:46.108Z,12.10
2018-09-08T23:08:26.309Z,12.10
2018-09-08T23:13:06.596Z,12.10
2018-09-08T23:17:47.403Z,12.10
2018-09-08T23:22:27.857Z,12.00
2018-09-08T23:27:08.913Z,12.00
2018-09-08T23:31:49.037Z,11.90
2018-09-08T23:36:29.989Z,11.90
2018-09-08T23:41:10.575Z,11.80
2018-09-08T23:45:51.004Z,11.80
2018-09-08T23:50:31.633Z,11.80
2018-09-08T23:55:11.919Z,11.80
2018-09-08T23:59:52.881Z,11.80
